sensor_id;sensor_type;location;lat;lon;timestamp;P1;durP1;ratioP1;P2;durP2;ratioP2
20679;SDS011;10499;47.494;7.608;2023-01-31T00:02:03;0.30;;;0.30;;
20679;SDS011;10499;47.494;7.608;2023-01-31T00:04:29;0.30;;;0.30;;
20679;SDS011;10499;47.494;7.608;2023-01-31T00:06:54;0.30;;;0.30;;
20679;SDS011;10499;47.494;7.608;2023-01-31T00:09:20;0.30;;;0.30;;
20679;SDS011;10499;47.494;7.608;2023-01-31T00:11:45;0.30;;;0.30;;
20679;SDS011;10499;47.494;7.608;2023-01-31T00:14:13;0.30;;;0.30;;
20679;SDS011;10499;47.494;7.608;2023-01-31T00:16:42;0.30;;;0.30;;
20679;SDS011;10499;47.494;7.608;2023-01-31T00:19:08;0.30;;;0.30;;
20679;SDS011;10499;47.494;7.608;2023-01-31T00:21:34;0.30;;;0.30;;
20679;SDS011;10499;47.494;7.608;2023-01-31T00:24:00;0.30;;;0.30;;
20679;SDS011;10499;47.494;7.608;2023-01-31T00:28:56;0.30;;;0.30;;
20679;SDS011;10499;47.494;7.608;2023-01-31T00:31:23;0.30;;;0.30;;
20679;SDS011;10499;47.494;7.608;2023-01-31T00:33:51;0.30;;;0.30;;
20679;SDS011;10499;47.494;7.608;2023-01-31T00:36:18;0.20;;;0.20;;
20679;SDS011;10499;47.494;7.608;2023-01-31T00:38:50;0.30;;;0.30;;
20679;SDS011;10499;47.494;7.608;2023-01-31T00:41:17;0.30;;;0.30;;
20679;SDS011;10499;47.494;7.608;2023-01-31T00:43:46;0.30;;;0.30;;
20679;SDS011;10499;47.494;7.608;2023-01-31T00:46:13;0.30;;;0.30;;
20679;SDS011;10499;47.494;7.608;2023-01-31T00:48:38;0.30;;;0.30;;
20679;SDS011;10499;47.494;7.608;2023-01-31T00:51:04;0.30;;;0.30;;
20679;SDS011;10499;47.494;7.608;2023-01-31T00:53:30;0.20;;;0.20;;
20679;SDS011;10499;47.494;7.608;2023-01-31T00:56:06;0.30;;;0.30;;
20679;SDS011;10499;47.494;7.608;2023-01-31T00:58:35;0.30;;;0.30;;
20679;SDS011;10499;47.494;7.608;2023-01-31T01:03:38;0.30;;;0.30;;
20679;SDS011;10499;47.494;7.608;2023-01-31T01:06:05;0.30;;;0.30;;
20679;SDS011;10499;47.494;7.608;2023-01-31T01:08:31;0.30;;;0.30;;
20679;SDS011;10499;47.494;7.608;2023-01-31T01:11:07;0.30;;;0.30;;
20679;SDS011;10499;47.494;7.608;2023-01-31T01:13:33;0.30;;;0.30;;
20679;SDS011;10499;47.494;7.608;2023-01-31T01:16:06;0.30;;;0.30;;
20679;SDS011;10499;47.494;7.608;2023-01-31T01:18:34;0.30;;;0.30;;
20679;SDS011;10499;47.494;7.608;2023-01-31T01:21:04;0.27;;;0.27;;
20679;SDS011;10499;47.494;7.608;2023-01-31T01:23:31;0.30;;;0.30;;
20679;SDS011;10499;47.494;7.608;2023-01-31T01:25:57;0.30;;;0.30;;
20679;SDS011;10499;47.494;7.608;2023-01-31T01:28:23;0.30;;;0.30;;
20679;SDS011;10499;47.494;7.608;2023-01-31T01:30:48;0.30;;;0.30;;
20679;SDS011;10499;47.494;7.608;2023-01-31T01:33:14;0.30;;;0.30;;
20679;SDS011;10499;47.494;7.608;2023-01-31T01:35:39;0.30;;;0.30;;
20679;SDS011;10499;47.494;7.608;2023-01-31T01:38:05;0.30;;;0.30;;
20679;SDS011;10499;47.494;7.608;2023-01-31T01:40:35;0.30;;;0.30;;
20679;SDS011;10499;47.494;7.608;2023-01-31T01:43:01;0.30;;;0.30;;
20679;SDS011;10499;47.494;7.608;2023-01-31T01:45:26;0.30;;;0.30;;
20679;SDS011;10499;47.494;7.608;2023-01-31T01:47:53;0.30;;;0.30;;
20679;SDS011;10499;47.494;7.608;2023-01-31T01:53:17;0.30;;;0.30;;
20679;SDS011;10499;47.494;7.608;2023-01-31T01:58:25;0.30;;;0.30;;
20679;SDS011;10499;47.494;7.608;2023-01-31T02:00:57;0.30;;;0.30;;
20679;SDS011;10499;47.494;7.608;2023-01-31T02:03:23;0.30;;;0.30;;
20679;SDS011;10499;47.494;7.608;2023-01-31T02:05:53;0.30;;;0.30;;
20679;SDS011;10499;47.494;7.608;2023-01-31T02:08:23;0.30;;;0.30;;
20679;SDS011;10499;47.494;7.608;2023-01-31T02:13:27;0.30;;;0.30;;
20679;SDS011;10499;47.494;7.608;2023-01-31T02:15:54;0.30;;;0.30;;
20679;SDS011;10499;47.494;7.608;2023-01-31T02:18:20;0.30;;;0.30;;
20679;SDS011;10499;47.494;7.608;2023-01-31T02:40:38;0.30;;;0.30;;
20679;SDS011;10499;47.494;7.608;2023-01-31T02:43:25;0.30;;;0.30;;
20679;SDS011;10499;47.494;7.608;2023-01-31T02:46:33;0.30;;;0.30;;
20679;SDS011;10499;47.494;7.608;2023-01-31T02:52:09;0.30;;;0.30;;
20679;SDS011;10499;47.494;7.608;2023-01-31T02:55:44;0.30;;;0.30;;
20679;SDS011;10499;47.494;7.608;2023-01-31T02:58:15;0.30;;;0.30;;
20679;SDS011;10499;47.494;7.608;2023-01-31T03:00:44;0.30;;;0.30;;
20679;SDS011;10499;47.494;7.608;2023-01-31T03:03:21;0.30;;;0.30;;
20679;SDS011;10499;47.494;7.608;2023-01-31T03:09:32;0.30;;;0.30;;
20679;SDS011;10499;47.494;7.608;2023-01-31T03:23:00;0.30;;;0.30;;
20679;SDS011;10499;47.494;7.608;2023-01-31T03:25:33;0.30;;;0.30;;
20679;SDS011;10499;47.494;7.608;2023-01-31T03:28:01;0.30;;;0.30;;
20679;SDS011;10499;47.494;7.608;2023-01-31T03:33:29;0.30;;;0.30;;
20679;SDS011;10499;47.494;7.608;2023-01-31T03:36:01;0.30;;;0.30;;
20679;SDS011;10499;47.494;7.608;2023-01-31T03:38:33;0.30;;;0.30;;
20679;SDS011;10499;47.494;7.608;2023-01-31T03:46:19;0.30;;;0.30;;
20679;SDS011;10499;47.494;7.608;2023-01-31T03:48:51;0.30;;;0.30;;
20679;SDS011;10499;47.494;7.608;2023-01-31T03:51:21;0.30;;;0.30;;
20679;SDS011;10499;47.494;7.608;2023-01-31T03:54:24;0.30;;;0.30;;
20679;SDS011;10499;47.494;7.608;2023-01-31T03:59:32;0.30;;;0.30;;
20679;SDS011;10499;47.494;7.608;2023-01-31T04:02:01;0.30;;;0.30;;
20679;SDS011;10499;47.494;7.608;2023-01-31T04:04:33;0.30;;;0.30;;
20679;SDS011;10499;47.494;7.608;2023-01-31T04:07:17;0.30;;;0.30;;
20679;SDS011;10499;47.494;7.608;2023-01-31T04:09:43;0.30;;;0.30;;
20679;SDS011;10499;47.494;7.608;2023-01-31T04:12:10;0.30;;;0.30;;
20679;SDS011;10499;47.494;7.608;2023-01-31T04:14:37;0.30;;;0.30;;
20679;SDS011;10499;47.494;7.608;2023-01-31T04:17:03;0.30;;;0.30;;
20679;SDS011;10499;47.494;7.608;2023-01-31T04:19:28;0.30;;;0.30;;
20679;SDS011;10499;47.494;7.608;2023-01-31T04:21:54;0.30;;;0.30;;
20679;SDS011;10499;47.494;7.608;2023-01-31T04:24:20;0.30;;;0.30;;
20679;SDS011;10499;47.494;7.608;2023-01-31T04:26:46;0.30;;;0.30;;
20679;SDS011;10499;47.494;7.608;2023-01-31T04:29:11;0.30;;;0.30;;
20679;SDS011;10499;47.494;7.608;2023-01-31T04:31:37;0.30;;;0.30;;
20679;SDS011;10499;47.494;7.608;2023-01-31T04:34:04;0.30;;;0.30;;
20679;SDS011;10499;47.494;7.608;2023-01-31T04:36:30;0.30;;;0.30;;
20679;SDS011;10499;47.494;7.608;2023-01-31T04:38:55;0.30;;;0.30;;
20679;SDS011;10499;47.494;7.608;2023-01-31T04:41:21;0.30;;;0.30;;
20679;SDS011;10499;47.494;7.608;2023-01-31T04:43:46;0.30;;;0.30;;
20679;SDS011;10499;47.494;7.608;2023-01-31T04:46:12;0.30;;;0.30;;
20679;SDS011;10499;47.494;7.608;2023-01-31T04:48:38;0.30;;;0.30;;
20679;SDS011;10499;47.494;7.608;2023-01-31T04:51:05;0.30;;;0.30;;
20679;SDS011;10499;47.494;7.608;2023-01-31T04:53:31;0.30;;;0.30;;
20679;SDS011;10499;47.494;7.608;2023-01-31T04:55:57;0.30;;;0.30;;
20679;SDS011;10499;47.494;7.608;2023-01-31T04:58:22;0.30;;;0.30;;
20679;SDS011;10499;47.494;7.608;2023-01-31T05:00:48;0.30;;;0.30;;
20679;SDS011;10499;47.494;7.608;2023-01-31T05:03:14;0.30;;;0.30;;
20679;SDS011;10499;47.494;7.608;2023-01-31T05:05:39;0.30;;;0.30;;
20679;SDS011;10499;47.494;7.608;2023-01-31T05:08:05;0.30;;;0.30;;
20679;SDS011;10499;47.494;7.608;2023-01-31T05:10:32;0.30;;;0.30;;
20679;SDS011;10499;47.494;7.608;2023-01-31T05:12:59;0.30;;;0.30;;
20679;SDS011;10499;47.494;7.608;2023-01-31T05:15:24;0.30;;;0.30;;
20679;SDS011;10499;47.494;7.608;2023-01-31T05:17:53;0.30;;;0.30;;
20679;SDS011;10499;47.494;7.608;2023-01-31T05:20:27;0.30;;;0.30;;
20679;SDS011;10499;47.494;7.608;2023-01-31T05:23:00;0.30;;;0.30;;
20679;SDS011;10499;47.494;7.608;2023-01-31T05:25:26;0.30;;;0.30;;
20679;SDS011;10499;47.494;7.608;2023-01-31T05:27:52;0.30;;;0.30;;
20679;SDS011;10499;47.494;7.608;2023-01-31T05:30:18;0.30;;;0.30;;
20679;SDS011;10499;47.494;7.608;2023-01-31T05:32:47;0.30;;;0.30;;
20679;SDS011;10499;47.494;7.608;2023-01-31T05:35:13;0.30;;;0.30;;
20679;SDS011;10499;47.494;7.608;2023-01-31T05:37:40;0.30;;;0.30;;
20679;SDS011;10499;47.494;7.608;2023-01-31T05:40:15;0.30;;;0.30;;
20679;SDS011;10499;47.494;7.608;2023-01-31T05:42:41;0.30;;;0.30;;
20679;SDS011;10499;47.494;7.608;2023-01-31T05:45:10;0.30;;;0.30;;
20679;SDS011;10499;47.494;7.608;2023-01-31T05:47:36;0.30;;;0.30;;
20679;SDS011;10499;47.494;7.608;2023-01-31T05:50:02;0.30;;;0.30;;
20679;SDS011;10499;47.494;7.608;2023-01-31T05:52:28;0.30;;;0.30;;
20679;SDS011;10499;47.494;7.608;2023-01-31T05:54:54;0.30;;;0.30;;
20679;SDS011;10499;47.494;7.608;2023-01-31T05:57:20;0.30;;;0.30;;
20679;SDS011;10499;47.494;7.608;2023-01-31T05:59:46;0.30;;;0.30;;
20679;SDS011;10499;47.494;7.608;2023-01-31T06:02:12;0.30;;;0.30;;
20679;SDS011;10499;47.494;7.608;2023-01-31T06:04:37;0.30;;;0.30;;
20679;SDS011;10499;47.494;7.608;2023-01-31T06:07:03;0.40;;;0.40;;
20679;SDS011;10499;47.494;7.608;2023-01-31T06:09:29;0.30;;;0.30;;
20679;SDS011;10499;47.494;7.608;2023-01-31T06:11:55;0.40;;;0.40;;
20679;SDS011;10499;47.494;7.608;2023-01-31T06:14:20;0.30;;;0.30;;
20679;SDS011;10499;47.494;7.608;2023-01-31T06:16:46;0.30;;;0.30;;
20679;SDS011;10499;47.494;7.608;2023-01-31T06:19:12;0.30;;;0.30;;
20679;SDS011;10499;47.494;7.608;2023-01-31T06:21:37;0.30;;;0.30;;
20679;SDS011;10499;47.494;7.608;2023-01-31T06:24:03;0.30;;;0.30;;
20679;SDS011;10499;47.494;7.608;2023-01-31T06:26:29;0.33;;;0.33;;
20679;SDS011;10499;47.494;7.608;2023-01-31T06:28:55;0.30;;;0.30;;
20679;SDS011;10499;47.494;7.608;2023-01-31T06:31:20;0.30;;;0.30;;
20679;SDS011;10499;47.494;7.608;2023-01-31T06:33:46;0.30;;;0.30;;
20679;SDS011;10499;47.494;7.608;2023-01-31T06:36:11;0.30;;;0.30;;
20679;SDS011;10499;47.494;7.608;2023-01-31T06:38:37;0.30;;;0.30;;
20679;SDS011;10499;47.494;7.608;2023-01-31T06:41:03;0.30;;;0.30;;
20679;SDS011;10499;47.494;7.608;2023-01-31T06:43:28;0.30;;;0.30;;
20679;SDS011;10499;47.494;7.608;2023-01-31T06:45:54;0.40;;;0.40;;
20679;SDS011;10499;47.494;7.608;2023-01-31T06:48:20;0.30;;;0.30;;
20679;SDS011;10499;47.494;7.608;2023-01-31T06:50:45;0.30;;;0.30;;
20679;SDS011;10499;47.494;7.608;2023-01-31T06:53:11;0.30;;;0.30;;
20679;SDS011;10499;47.494;7.608;2023-01-31T06:55:37;0.30;;;0.30;;
20679;SDS011;10499;47.494;7.608;2023-01-31T06:58:03;0.30;;;0.30;;
20679;SDS011;10499;47.494;7.608;2023-01-31T07:00:28;0.30;;;0.30;;
20679;SDS011;10499;47.494;7.608;2023-01-31T07:02:55;0.30;;;0.30;;
20679;SDS011;10499;47.494;7.608;2023-01-31T07:05:20;0.30;;;0.30;;
20679;SDS011;10499;47.494;7.608;2023-01-31T07:07:47;0.30;;;0.30;;
20679;SDS011;10499;47.494;7.608;2023-01-31T07:10:14;0.30;;;0.30;;
20679;SDS011;10499;47.494;7.608;2023-01-31T07:12:41;0.30;;;0.30;;
20679;SDS011;10499;47.494;7.608;2023-01-31T07:15:07;0.30;;;0.30;;
20679;SDS011;10499;47.494;7.608;2023-01-31T07:17:34;0.30;;;0.30;;
20679;SDS011;10499;47.494;7.608;2023-01-31T07:20:00;0.30;;;0.30;;
20679;SDS011;10499;47.494;7.608;2023-01-31T07:22:28;0.40;;;0.40;;
20679;SDS011;10499;47.494;7.608;2023-01-31T07:24:54;0.30;;;0.30;;
20679;SDS011;10499;47.494;7.608;2023-01-31T07:27:19;0.30;;;0.30;;
20679;SDS011;10499;47.494;7.608;2023-01-31T07:29:45;0.40;;;0.40;;
20679;SDS011;10499;47.494;7.608;2023-01-31T07:32:10;0.33;;;0.33;;
20679;SDS011;10499;47.494;7.608;2023-01-31T07:34:36;0.30;;;0.30;;
20679;SDS011;10499;47.494;7.608;2023-01-31T07:37:02;0.37;;;0.37;;
20679;SDS011;10499;47.494;7.608;2023-01-31T07:39:28;0.30;;;0.30;;
20679;SDS011;10499;47.494;7.608;2023-01-31T07:41:54;0.40;;;0.40;;
20679;SDS011;10499;47.494;7.608;2023-01-31T07:44:19;0.30;;;0.30;;
20679;SDS011;10499;47.494;7.608;2023-01-31T07:46:45;0.30;;;0.30;;
20679;SDS011;10499;47.494;7.608;2023-01-31T07:49:11;0.30;;;0.30;;
20679;SDS011;10499;47.494;7.608;2023-01-31T08:12:20;0.10;;;0.10;;
20679;SDS011;10499;47.494;7.608;2023-01-31T08:14:46;0.10;;;0.10;;
20679;SDS011;10499;47.494;7.608;2023-01-31T08:17:11;0.10;;;0.10;;
20679;SDS011;10499;47.494;7.608;2023-01-31T08:19:37;0.10;;;0.10;;
20679;SDS011;10499;47.494;7.608;2023-01-31T08:22:03;0.10;;;0.10;;
20679;SDS011;10499;47.494;7.608;2023-01-31T08:24:29;0.10;;;0.10;;
20679;SDS011;10499;47.494;7.608;2023-01-31T08:26:56;0.10;;;0.10;;
20679;SDS011;10499;47.494;7.608;2023-01-31T08:29:22;0.10;;;0.10;;
20679;SDS011;10499;47.494;7.608;2023-01-31T08:31:48;0.10;;;0.10;;
20679;SDS011;10499;47.494;7.608;2023-01-31T08:34:14;0.10;;;0.10;;
20679;SDS011;10499;47.494;7.608;2023-01-31T08:36:40;0.10;;;0.10;;
20679;SDS011;10499;47.494;7.608;2023-01-31T08:39:07;0.10;;;0.10;;
20679;SDS011;10499;47.494;7.608;2023-01-31T08:41:33;0.10;;;0.10;;
20679;SDS011;10499;47.494;7.608;2023-01-31T08:43:59;0.10;;;0.10;;
20679;SDS011;10499;47.494;7.608;2023-01-31T08:46:30;0.10;;;0.10;;
20679;SDS011;10499;47.494;7.608;2023-01-31T08:48:57;0.10;;;0.10;;
20679;SDS011;10499;47.494;7.608;2023-01-31T08:51:28;0.10;;;0.10;;
20679;SDS011;10499;47.494;7.608;2023-01-31T08:53:54;0.10;;;0.10;;
20679;SDS011;10499;47.494;7.608;2023-01-31T08:56:19;0.10;;;0.10;;
20679;SDS011;10499;47.494;7.608;2023-01-31T08:58:49;0.10;;;0.10;;
20679;SDS011;10499;47.494;7.608;2023-01-31T09:01:16;0.10;;;0.10;;
20679;SDS011;10499;47.494;7.608;2023-01-31T09:03:43;0.10;;;0.10;;
20679;SDS011;10499;47.494;7.608;2023-01-31T09:06:10;0.10;;;0.10;;
20679;SDS011;10499;47.494;7.608;2023-01-31T09:08:44;0.10;;;0.10;;
20679;SDS011;10499;47.494;7.608;2023-01-31T09:29:05;0.10;;;0.10;;
20679;SDS011;10499;47.494;7.608;2023-01-31T09:34:45;0.00;;;0.00;;
20679;SDS011;10499;47.494;7.608;2023-01-31T09:37:13;0.10;;;0.10;;
20679;SDS011;10499;47.494;7.608;2023-01-31T09:39:41;0.10;;;0.10;;
20679;SDS011;10499;47.494;7.608;2023-01-31T09:42:18;0.10;;;0.10;;
20679;SDS011;10499;47.494;7.608;2023-01-31T09:45:16;0.10;;;0.10;;
20679;SDS011;10499;47.494;7.608;2023-01-31T09:47:54;0.10;;;0.10;;
20679;SDS011;10499;47.494;7.608;2023-01-31T09:50:39;0.10;;;0.10;;
20679;SDS011;10499;47.494;7.608;2023-01-31T09:53:11;0.10;;;0.10;;
20679;SDS011;10499;47.494;7.608;2023-01-31T09:58:29;0.10;;;0.10;;
20679;SDS011;10499;47.494;7.608;2023-01-31T10:01:10;0.10;;;0.10;;
20679;SDS011;10499;47.494;7.608;2023-01-31T10:12:27;0.03;;;0.03;;
20679;SDS011;10499;47.494;7.608;2023-01-31T10:15:17;0.10;;;0.10;;
20679;SDS011;10499;47.494;7.608;2023-01-31T10:18:00;0.10;;;0.10;;
20679;SDS011;10499;47.494;7.608;2023-01-31T10:20:37;0.10;;;0.10;;
20679;SDS011;10499;47.494;7.608;2023-01-31T10:25:51;0.10;;;0.10;;
20679;SDS011;10499;47.494;7.608;2023-01-31T10:30:47;0.10;;;0.10;;
20679;SDS011;10499;47.494;7.608;2023-01-31T10:36:56;0.10;;;0.10;;
20679;SDS011;10499;47.494;7.608;2023-01-31T10:39:06;0.10;;;0.10;;
20679;SDS011;10499;47.494;7.608;2023-01-31T10:44:41;0.10;;;0.10;;
20679;SDS011;10499;47.494;7.608;2023-01-31T10:47:11;0.10;;;0.10;;
20679;SDS011;10499;47.494;7.608;2023-01-31T10:49:39;0.10;;;0.10;;
20679;SDS011;10499;47.494;7.608;2023-01-31T10:52:15;0.10;;;0.10;;
20679;SDS011;10499;47.494;7.608;2023-01-31T10:54:49;0.10;;;0.10;;
20679;SDS011;10499;47.494;7.608;2023-01-31T10:57:21;0.10;;;0.10;;
20679;SDS011;10499;47.494;7.608;2023-01-31T10:59:47;0.10;;;0.10;;
20679;SDS011;10499;47.494;7.608;2023-01-31T11:02:21;0.10;;;0.10;;
20679;SDS011;10499;47.494;7.608;2023-01-31T11:04:50;0.10;;;0.10;;
20679;SDS011;10499;47.494;7.608;2023-01-31T11:07:17;0.10;;;0.10;;
20679;SDS011;10499;47.494;7.608;2023-01-31T11:09:51;0.10;;;0.10;;
20679;SDS011;10499;47.494;7.608;2023-01-31T11:12:32;0.10;;;0.10;;
20679;SDS011;10499;47.494;7.608;2023-01-31T11:15:17;0.20;;;0.20;;
20679;SDS011;10499;47.494;7.608;2023-01-31T11:17:44;0.20;;;0.20;;
20679;SDS011;10499;47.494;7.608;2023-01-31T11:20:18;0.10;;;0.10;;
20679;SDS011;10499;47.494;7.608;2023-01-31T11:22:45;0.10;;;0.10;;
20679;SDS011;10499;47.494;7.608;2023-01-31T11:25:14;0.20;;;0.20;;
20679;SDS011;10499;47.494;7.608;2023-01-31T11:27:44;0.20;;;0.20;;
20679;SDS011;10499;47.494;7.608;2023-01-31T11:30:20;0.20;;;0.20;;
20679;SDS011;10499;47.494;7.608;2023-01-31T11:32:50;0.20;;;0.20;;
20679;SDS011;10499;47.494;7.608;2023-01-31T11:37:52;0.13;;;0.13;;
20679;SDS011;10499;47.494;7.608;2023-01-31T11:40:19;0.20;;;0.20;;
20679;SDS011;10499;47.494;7.608;2023-01-31T11:42:52;0.20;;;0.20;;
20679;SDS011;10499;47.494;7.608;2023-01-31T11:45:22;0.20;;;0.20;;
20679;SDS011;10499;47.494;7.608;2023-01-31T11:48:08;0.20;;;0.20;;
20679;SDS011;10499;47.494;7.608;2023-01-31T11:53:18;0.20;;;0.20;;
20679;SDS011;10499;47.494;7.608;2023-01-31T11:55:47;0.20;;;0.20;;
20679;SDS011;10499;47.494;7.608;2023-01-31T11:58:16;0.30;;;0.30;;
20679;SDS011;10499;47.494;7.608;2023-01-31T12:09:00;0.22;;;0.22;;
20679;SDS011;10499;47.494;7.608;2023-01-31T12:14:59;0.17;;;0.17;;
20679;SDS011;10499;47.494;7.608;2023-01-31T12:17:30;0.20;;;0.20;;
20679;SDS011;10499;47.494;7.608;2023-01-31T12:30:52;0.20;;;0.20;;
20679;SDS011;10499;47.494;7.608;2023-01-31T12:54:48;0.20;;;0.20;;
20679;SDS011;10499;47.494;7.608;2023-01-31T13:05:33;0.30;;;0.30;;
20679;SDS011;10499;47.494;7.608;2023-01-31T13:08:15;0.23;;;0.23;;
20679;SDS011;10499;47.494;7.608;2023-01-31T13:10:45;0.20;;;0.20;;
20679;SDS011;10499;47.494;7.608;2023-01-31T13:13:18;0.20;;;0.20;;
20679;SDS011;10499;47.494;7.608;2023-01-31T13:16:04;0.27;;;0.27;;
20679;SDS011;10499;47.494;7.608;2023-01-31T13:18:37;0.30;;;0.30;;
20679;SDS011;10499;47.494;7.608;2023-01-31T13:21:06;0.30;;;0.30;;
20679;SDS011;10499;47.494;7.608;2023-01-31T13:23:43;0.20;;;0.20;;
20679;SDS011;10499;47.494;7.608;2023-01-31T13:26:20;0.20;;;0.20;;
20679;SDS011;10499;47.494;7.608;2023-01-31T13:29:03;0.20;;;0.20;;
20679;SDS011;10499;47.494;7.608;2023-01-31T13:31:47;0.30;;;0.30;;
20679;SDS011;10499;47.494;7.608;2023-01-31T13:34:28;0.30;;;0.30;;
20679;SDS011;10499;47.494;7.608;2023-01-31T13:37:01;0.30;;;0.30;;
20679;SDS011;10499;47.494;7.608;2023-01-31T13:39:52;0.20;;;0.20;;
20679;SDS011;10499;47.494;7.608;2023-01-31T13:42:31;0.30;;;0.30;;
20679;SDS011;10499;47.494;7.608;2023-01-31T13:44:59;0.20;;;0.20;;
20679;SDS011;10499;47.494;7.608;2023-01-31T13:47:39;0.30;;;0.30;;
20679;SDS011;10499;47.494;7.608;2023-01-31T13:53:04;0.30;;;0.30;;
20679;SDS011;10499;47.494;7.608;2023-01-31T13:55:41;0.20;;;0.20;;
20679;SDS011;10499;47.494;7.608;2023-01-31T13:58:30;0.20;;;0.20;;
20679;SDS011;10499;47.494;7.608;2023-01-31T14:00:58;0.20;;;0.20;;
20679;SDS011;10499;47.494;7.608;2023-01-31T14:03:27;0.20;;;0.20;;
20679;SDS011;10499;47.494;7.608;2023-01-31T14:05:55;0.20;;;0.20;;
20679;SDS011;10499;47.494;7.608;2023-01-31T14:13:41;0.20;;;0.20;;
20679;SDS011;10499;47.494;7.608;2023-01-31T14:18:55;0.30;;;0.30;;
20679;SDS011;10499;47.494;7.608;2023-01-31T14:29:07;0.20;;;0.20;;
20679;SDS011;10499;47.494;7.608;2023-01-31T14:31:41;0.20;;;0.20;;
20679;SDS011;10499;47.494;7.608;2023-01-31T14:34:22;0.20;;;0.20;;
20679;SDS011;10499;47.494;7.608;2023-01-31T14:37:00;0.30;;;0.30;;
20679;SDS011;10499;47.494;7.608;2023-01-31T14:47:35;0.20;;;0.20;;
20679;SDS011;10499;47.494;7.608;2023-01-31T14:50:19;0.20;;;0.20;;
20679;SDS011;10499;47.494;7.608;2023-01-31T14:55:39;0.20;;;0.20;;
20679;SDS011;10499;47.494;7.608;2023-01-31T14:58:21;0.30;;;0.30;;
20679;SDS011;10499;47.494;7.608;2023-01-31T15:01:00;0.30;;;0.30;;
20679;SDS011;10499;47.494;7.608;2023-01-31T15:03:30;0.30;;;0.30;;
20679;SDS011;10499;47.494;7.608;2023-01-31T15:06:10;0.30;;;0.30;;
20679;SDS011;10499;47.494;7.608;2023-01-31T15:08:46;0.20;;;0.20;;
20679;SDS011;10499;47.494;7.608;2023-01-31T15:11:34;0.30;;;0.30;;
20679;SDS011;10499;47.494;7.608;2023-01-31T15:14:00;0.20;;;0.20;;
20679;SDS011;10499;47.494;7.608;2023-01-31T15:17:13;0.30;;;0.30;;
20679;SDS011;10499;47.494;7.608;2023-01-31T15:19:48;0.30;;;0.30;;
20679;SDS011;10499;47.494;7.608;2023-01-31T15:22:19;0.30;;;0.30;;
20679;SDS011;10499;47.494;7.608;2023-01-31T15:24:48;0.20;;;0.20;;
20679;SDS011;10499;47.494;7.608;2023-01-31T15:27:18;0.20;;;0.20;;
20679;SDS011;10499;47.494;7.608;2023-01-31T15:29:49;0.30;;;0.30;;
20679;SDS011;10499;47.494;7.608;2023-01-31T15:32:23;0.30;;;0.30;;
20679;SDS011;10499;47.494;7.608;2023-01-31T15:35:03;0.30;;;0.30;;
20679;SDS011;10499;47.494;7.608;2023-01-31T15:37:39;0.30;;;0.30;;
20679;SDS011;10499;47.494;7.608;2023-01-31T15:40:19;0.30;;;0.30;;
20679;SDS011;10499;47.494;7.608;2023-01-31T15:42:47;0.30;;;0.30;;
20679;SDS011;10499;47.494;7.608;2023-01-31T15:45:18;0.30;;;0.30;;
20679;SDS011;10499;47.494;7.608;2023-01-31T15:47:58;0.30;;;0.30;;
20679;SDS011;10499;47.494;7.608;2023-01-31T15:50:27;0.30;;;0.30;;
20679;SDS011;10499;47.494;7.608;2023-01-31T15:53:16;0.30;;;0.30;;
20679;SDS011;10499;47.494;7.608;2023-01-31T15:55:57;0.30;;;0.30;;
20679;SDS011;10499;47.494;7.608;2023-01-31T15:58:26;0.30;;;0.30;;
20679;SDS011;10499;47.494;7.608;2023-01-31T16:00:55;0.30;;;0.30;;
20679;SDS011;10499;47.494;7.608;2023-01-31T16:03:26;0.30;;;0.30;;
20679;SDS011;10499;47.494;7.608;2023-01-31T16:05:55;0.30;;;0.30;;
20679;SDS011;10499;47.494;7.608;2023-01-31T16:10:55;0.30;;;0.30;;
20679;SDS011;10499;47.494;7.608;2023-01-31T16:13:22;0.30;;;0.30;;
20679;SDS011;10499;47.494;7.608;2023-01-31T16:15:49;0.30;;;0.30;;
20679;SDS011;10499;47.494;7.608;2023-01-31T16:18:15;0.20;;;0.20;;
20679;SDS011;10499;47.494;7.608;2023-01-31T16:26:07;0.30;;;0.30;;
20679;SDS011;10499;47.494;7.608;2023-01-31T16:28:44;0.20;;;0.20;;
20679;SDS011;10499;47.494;7.608;2023-01-31T16:31:15;0.20;;;0.20;;
20679;SDS011;10499;47.494;7.608;2023-01-31T16:33:46;0.20;;;0.20;;
20679;SDS011;10499;47.494;7.608;2023-01-31T16:36:15;0.30;;;0.30;;
20679;SDS011;10499;47.494;7.608;2023-01-31T16:39:01;0.30;;;0.30;;
20679;SDS011;10499;47.494;7.608;2023-01-31T16:41:39;0.30;;;0.30;;
20679;SDS011;10499;47.494;7.608;2023-01-31T16:44:17;0.30;;;0.30;;
20679;SDS011;10499;47.494;7.608;2023-01-31T16:46:45;0.30;;;0.30;;
20679;SDS011;10499;47.494;7.608;2023-01-31T16:49:20;0.30;;;0.30;;
20679;SDS011;10499;47.494;7.608;2023-01-31T16:51:48;0.30;;;0.30;;
20679;SDS011;10499;47.494;7.608;2023-01-31T16:54:28;0.20;;;0.20;;
20679;SDS011;10499;47.494;7.608;2023-01-31T17:04:32;0.30;;;0.30;;
20679;SDS011;10499;47.494;7.608;2023-01-31T17:07:05;0.30;;;0.30;;
20679;SDS011;10499;47.494;7.608;2023-01-31T17:09:38;0.30;;;0.30;;
20679;SDS011;10499;47.494;7.608;2023-01-31T17:12:04;0.20;;;0.20;;
20679;SDS011;10499;47.494;7.608;2023-01-31T17:14:30;0.30;;;0.30;;
20679;SDS011;10499;47.494;7.608;2023-01-31T17:16:58;0.20;;;0.20;;
20679;SDS011;10499;47.494;7.608;2023-01-31T17:19:24;0.20;;;0.20;;
20679;SDS011;10499;47.494;7.608;2023-01-31T17:21:49;0.30;;;0.30;;
20679;SDS011;10499;47.494;7.608;2023-01-31T17:24:16;0.30;;;0.30;;
20679;SDS011;10499;47.494;7.608;2023-01-31T17:26:43;0.20;;;0.20;;
20679;SDS011;10499;47.494;7.608;2023-01-31T17:29:09;0.30;;;0.30;;
20679;SDS011;10499;47.494;7.608;2023-01-31T17:31:34;0.30;;;0.30;;
20679;SDS011;10499;47.494;7.608;2023-01-31T17:34:00;0.20;;;0.20;;
20679;SDS011;10499;47.494;7.608;2023-01-31T17:36:27;0.30;;;0.30;;
20679;SDS011;10499;47.494;7.608;2023-01-31T17:38:52;0.30;;;0.30;;
20679;SDS011;10499;47.494;7.608;2023-01-31T17:41:18;0.30;;;0.30;;
20679;SDS011;10499;47.494;7.608;2023-01-31T17:43:47;0.30;;;0.30;;
20679;SDS011;10499;47.494;7.608;2023-01-31T17:46:13;0.20;;;0.20;;
20679;SDS011;10499;47.494;7.608;2023-01-31T17:48:40;0.30;;;0.30;;
20679;SDS011;10499;47.494;7.608;2023-01-31T17:51:06;0.30;;;0.30;;
20679;SDS011;10499;47.494;7.608;2023-01-31T17:53:32;0.20;;;0.20;;
20679;SDS011;10499;47.494;7.608;2023-01-31T17:55:58;0.30;;;0.30;;
20679;SDS011;10499;47.494;7.608;2023-01-31T17:58:24;0.30;;;0.30;;
20679;SDS011;10499;47.494;7.608;2023-01-31T18:00:53;0.30;;;0.30;;
20679;SDS011;10499;47.494;7.608;2023-01-31T18:03:20;0.30;;;0.30;;
20679;SDS011;10499;47.494;7.608;2023-01-31T18:05:48;0.30;;;0.30;;
20679;SDS011;10499;47.494;7.608;2023-01-31T18:08:14;0.30;;;0.30;;
20679;SDS011;10499;47.494;7.608;2023-01-31T18:10:40;0.30;;;0.30;;
20679;SDS011;10499;47.494;7.608;2023-01-31T18:13:06;0.30;;;0.30;;
20679;SDS011;10499;47.494;7.608;2023-01-31T18:15:32;0.30;;;0.30;;
20679;SDS011;10499;47.494;7.608;2023-01-31T18:18:00;0.30;;;0.30;;
20679;SDS011;10499;47.494;7.608;2023-01-31T18:20:27;0.30;;;0.30;;
20679;SDS011;10499;47.494;7.608;2023-01-31T18:22:53;0.30;;;0.30;;
20679;SDS011;10499;47.494;7.608;2023-01-31T18:25:18;0.30;;;0.30;;
20679;SDS011;10499;47.494;7.608;2023-01-31T18:27:44;0.30;;;0.30;;
20679;SDS011;10499;47.494;7.608;2023-01-31T18:30:10;0.30;;;0.30;;
20679;SDS011;10499;47.494;7.608;2023-01-31T18:32:36;0.30;;;0.30;;
20679;SDS011;10499;47.494;7.608;2023-01-31T18:35:02;0.30;;;0.30;;
20679;SDS011;10499;47.494;7.608;2023-01-31T18:37:28;0.30;;;0.30;;
20679;SDS011;10499;47.494;7.608;2023-01-31T18:39:54;0.30;;;0.30;;
20679;SDS011;10499;47.494;7.608;2023-01-31T18:42:20;0.30;;;0.30;;
20679;SDS011;10499;47.494;7.608;2023-01-31T18:44:46;0.27;;;0.27;;
20679;SDS011;10499;47.494;7.608;2023-01-31T18:47:12;0.30;;;0.30;;
20679;SDS011;10499;47.494;7.608;2023-01-31T18:49:38;0.30;;;0.30;;
20679;SDS011;10499;47.494;7.608;2023-01-31T18:52:04;0.20;;;0.20;;
20679;SDS011;10499;47.494;7.608;2023-01-31T18:54:30;0.30;;;0.30;;